createdAt,value
2022-11-02T00:01:39.538Z,11.00
2022-11-02T00:04:06.464Z,11.00
2022-11-02T00:06:33.708Z,9.52
2022-11-02T00:09:00.559Z,6.60
2022-11-02T00:11:27.426Z,8.70
2022-11-02T00:13:54.461Z,10.70
2022-11-02T00:16:22.811Z,11.93
2022-11-02T00:18:53.428Z,9.25
2022-11-02T00:21:21.780Z,9.93
2022-11-02T00:23:49.903Z,10.65
2022-11-02T00:26:17.690Z,10.90
2022-11-02T00:28:45.726Z,11.98
2022-11-02T00:31:12.702Z,11.43
2022-11-02T00:33:39.574Z,12.48
2022-11-02T00:36:06.667Z,11.75
2022-11-02T00:38:33.721Z,12.27
2022-11-02T00:41:00.559Z,12.82
2022-11-02T00:43:27.456Z,10.90
2022-11-02T00:45:54.382Z,9.10
2022-11-02T00:48:22.463Z,10.02
2022-11-02T00:50:49.473Z,8.43
2022-11-02T00:53:18.163Z,8.98
2022-11-02T00:55:51.589Z,6.22
2022-11-02T00:58:18.428Z,7.60
2022-11-02T01:00:45.420Z,5.72
2022-11-02T01:03:12.499Z,9.32
2022-11-02T01:05:39.345Z,10.00
2022-11-02T01:08:06.623Z,9.95
2022-11-02T01:10:33.775Z,10.40
2022-11-02T01:13:01.779Z,10.35
2022-11-02T01:15:28.757Z,10.70
2022-11-02T01:17:55.642Z,8.60
2022-11-02T01:20:22.547Z,8.27
2022-11-02T01:22:49.376Z,9.65
2022-11-02T01:25:16.364Z,9.95
2022-11-02T01:27:43.198Z,10.93
2022-11-02T01:30:10.730Z,12.30
2022-11-02T01:32:37.574Z,13.25
2022-11-02T01:35:04.811Z,11.63
2022-11-02T01:37:31.704Z,15.30
2022-11-02T01:39:58.600Z,13.85
2022-11-02T01:42:28.464Z,12.77
2022-11-02T01:44:56.665Z,12.73
2022-11-02T01:47:26.569Z,9.43
2022-11-02T01:49:58.328Z,11.38
2022-11-02T01:52:31.490Z,13.52
2022-11-02T01:55:07.265Z,13.27
2022-11-02T01:57:36.651Z,13.50
2022-11-02T02:00:08.675Z,15.10
2022-11-02T02:02:49.764Z,13.50
2022-11-02T02:05:18.421Z,12.15
2022-11-02T02:07:46.695Z,12.63
2022-11-02T02:10:14.771Z,11.25
2022-11-02T02:12:43.667Z,9.02
2022-11-02T02:15:15.864Z,10.25
2022-11-02T02:18:00.690Z,11.50
2022-11-02T02:20:48.619Z,10.75
2022-11-02T02:23:44.541Z,9.43
2022-11-02T02:26:17.205Z,12.52
2022-11-02T02:29:14.464Z,10.63
2022-11-02T02:31:53.854Z,11.15
2022-11-02T02:34:31.161Z,11.88
2022-11-02T02:37:10.100Z,13.30
2022-11-02T02:39:44.393Z,14.10
2022-11-02T02:42:31.548Z,16.07
2022-11-02T02:45:01.639Z,11.38
2022-11-02T02:47:33.117Z,10.55
2022-11-02T02:50:11.878Z,10.65
2022-11-02T02:52:40.242Z,10.68
2022-11-02T02:55:14.033Z,7.30
2022-11-02T02:57:41.773Z,9.27
2022-11-02T03:00:17.598Z,9.95
2022-11-02T03:03:01.303Z,9.13
2022-11-02T03:05:36.785Z,9.82
2022-11-02T03:08:13.718Z,8.60
2022-11-02T03:10:53.427Z,10.05
2022-11-02T03:13:35.671Z,10.02
2022-11-02T03:16:19.933Z,13.00
2022-11-02T03:18:54.594Z,12.48
2022-11-02T03:21:40.569Z,10.43
2022-11-02T03:24:33.405Z,10.85
2022-11-02T03:27:18.525Z,11.20
2022-11-02T03:29:52.188Z,10.82
2022-11-02T03:32:31.048Z,9.30
2022-11-02T03:35:07.225Z,9.73
2022-11-02T03:37:46.951Z,8.55
2022-11-02T03:40:20.276Z,9.85
2022-11-02T03:42:50.863Z,15.77
2022-11-02T03:45:24.023Z,22.33
2022-11-02T03:47:55.544Z,27.35
2022-11-02T03:50:23.789Z,29.13
2022-11-02T03:53:03.885Z,27.92
2022-11-02T03:55:36.822Z,28.70
2022-11-02T03:58:04.662Z,30.52
2022-11-02T04:00:36.098Z,32.75
2022-11-02T04:03:08.204Z,34.25
2022-11-02T04:05:40.683Z,41.10
2022-11-02T04:11:12.276Z,38.95
2022-11-02T04:13:59.455Z,32.47
2022-11-02T04:16:29.130Z,31.05
2022-11-02T04:19:16.984Z,31.73
2022-11-02T04:22:04.911Z,39.85
2022-11-02T04:24:52.631Z,43.53
2022-11-02T04:27:21.284Z,47.25
2022-11-02T04:29:50.833Z,49.38
2022-11-02T04:32:36.996Z,53.50
2022-11-02T04:35:06.377Z,65.05
2022-11-02T04:37:57.366Z,63.75
2022-11-02T04:40:24.474Z,63.58
2022-11-02T04:42:53.005Z,62.35
2022-11-02T04:45:20.153Z,62.20
2022-11-02T04:47:48.311Z,65.28
2022-11-02T04:50:15.635Z,68.20
2022-11-02T04:52:43.846Z,94.28
2022-11-02T04:55:11.956Z,93.75
2022-11-02T04:57:44.959Z,110.82
2022-11-02T05:00:13.394Z,119.90
2022-11-02T05:02:40.983Z,118.40
2022-11-02T05:05:08.475Z,111.05
2022-11-02T05:07:35.546Z,109.50
2022-11-02T05:10:02.724Z,95.35
2022-11-02T05:12:30.947Z,94.15
2022-11-02T05:14:59.928Z,90.60
2022-11-02T05:17:27.244Z,87.80
2022-11-02T05:19:54.231Z,82.68
2022-11-02T05:22:21.572Z,80.70
2022-11-02T05:24:48.664Z,76.90
2022-11-02T05:27:16.064Z,73.18
2022-11-02T05:29:45.089Z,70.20
2022-11-02T05:32:12.017Z,61.60
2022-11-02T05:34:39.446Z,58.35
2022-11-02T05:37:08.807Z,51.97
2022-11-02T05:39:37.287Z,53.65
2022-11-02T05:42:04.809Z,54.28
2022-11-02T05:44:32.139Z,56.30
2022-11-02T05:46:59.377Z,64.55
2022-11-02T05:49:26.310Z,60.55
2022-11-02T05:51:53.190Z,57.33
2022-11-02T05:54:20.847Z,55.90
2022-11-02T05:56:47.787Z,50.20
2022-11-02T05:59:14.657Z,44.75
2022-11-02T06:01:41.639Z,42.45
2022-11-02T06:04:08.710Z,37.17
2022-11-02T06:06:35.658Z,32.45
2022-11-02T06:09:06.891Z,25.02
2022-11-02T06:11:34.478Z,23.65
2022-11-02T06:14:02.948Z,22.40
2022-11-02T06:16:30.616Z,19.60
2022-11-02T06:18:57.588Z,16.80
2022-11-02T06:21:24.599Z,16.30
2022-11-02T06:23:51.540Z,12.55
2022-11-02T06:26:18.583Z,13.07
2022-11-02T06:28:45.474Z,13.20
2022-11-02T06:31:13.711Z,12.30
2022-11-02T06:33:40.602Z,12.07
2022-11-02T06:36:07.735Z,10.30
2022-11-02T06:38:34.593Z,9.95
2022-11-02T06:41:05.760Z,9.60
2022-11-02T06:43:34.451Z,10.38
2022-11-02T06:46:01.453Z,8.82
2022-11-02T06:48:34.603Z,7.75
2022-11-02T06:51:03.064Z,8.30
2022-11-02T06:53:30.088Z,8.57
2022-11-02T06:55:58.450Z,8.48
2022-11-02T06:58:26.331Z,8.27
2022-11-02T07:01:05.254Z,8.23
2022-11-02T07:03:32.274Z,9.38
2022-11-02T07:05:59.983Z,8.77
2022-11-02T07:08:27.907Z,9.20
2022-11-02T07:10:54.797Z,9.38
2022-11-02T07:13:21.820Z,8.65
2022-11-02T07:15:52.794Z,9.90
2022-11-02T07:18:19.844Z,10.20
2022-11-02T07:20:46.736Z,10.98
2022-11-02T07:23:13.593Z,9.57
2022-11-02T07:25:41.732Z,11.32
2022-11-02T07:28:08.608Z,10.38
2022-11-02T07:30:35.752Z,10.95
2022-11-02T07:33:03.089Z,12.23
2022-11-02T07:35:30.595Z,12.18
2022-11-02T07:38:03.292Z,11.82
2022-11-02T07:40:31.518Z,10.10
2022-11-02T07:42:59.222Z,8.75
2022-11-02T07:45:52.103Z,10.23
2022-11-02T07:48:18.929Z,8.70
2022-11-02T07:50:45.757Z,8.98
2022-11-02T07:53:12.616Z,9.65
2022-11-02T07:55:39.753Z,9.55
2022-11-02T07:58:10.395Z,10.07
2022-11-02T08:00:39.576Z,10.13
2022-11-02T08:03:08.403Z,9.82
2022-11-02T08:05:37.709Z,10.85
2022-11-02T08:08:10.825Z,11.45
2022-11-02T08:10:40.480Z,11.70
2022-11-02T08:13:09.336Z,11.35
2022-11-02T08:15:36.931Z,11.50
2022-11-02T08:18:05.564Z,11.88
2022-11-02T08:20:35.344Z,12.60
2022-11-02T08:23:02.586Z,11.80
2022-11-02T08:25:29.585Z,13.90
2022-11-02T08:27:59.157Z,13.48
2022-11-02T08:30:27.718Z,13.63
2022-11-02T08:32:57.055Z,14.05
2022-11-02T08:35:24.559Z,14.13
2022-11-02T08:37:57.967Z,12.18
2022-11-02T08:40:25.142Z,12.75
2022-11-02T08:43:06.135Z,9.13
2022-11-02T08:46:00.636Z,11.15
2022-11-02T08:48:21.948Z,10.27
2022-11-02T08:50:49.555Z,10.18
2022-11-02T08:53:16.561Z,10.27
2022-11-02T08:55:43.498Z,11.07
2022-11-02T08:58:10.431Z,11.77
2022-11-02T09:00:37.369Z,13.02
2022-11-02T09:03:13.120Z,13.25
2022-11-02T09:05:42.780Z,13.05
2022-11-02T09:08:18.288Z,12.38
2022-11-02T09:10:47.918Z,13.25
2022-11-02T09:13:18.836Z,12.35
2022-11-02T09:15:49.690Z,12.75
2022-11-02T09:18:16.819Z,12.23
2022-11-02T09:20:43.686Z,11.68
2022-11-02T09:23:11.081Z,10.75
2022-11-02T09:25:38.197Z,11.85
2022-11-02T09:28:05.337Z,11.63
2022-11-02T09:30:32.436Z,10.68
2022-11-02T09:33:02.157Z,11.15
2022-11-02T09:35:34.722Z,10.75
2022-11-02T09:38:01.624Z,10.20
2022-11-02T09:40:35.647Z,10.20
2022-11-02T09:43:08.893Z,11.07
2022-11-02T09:45:42.339Z,11.20
2022-11-02T09:48:27.859Z,11.18
2022-11-02T09:51:19.024Z,10.93
2022-11-02T09:54:17.327Z,10.45
2022-11-02T09:56:46.003Z,9.73
2022-11-02T09:59:26.965Z,9.15
2022-11-02T10:02:28.798Z,9.90
2022-11-02T10:05:07.869Z,9.45
2022-11-02T10:07:56.545Z,9.85
2022-11-02T10:10:43.470Z,9.60
2022-11-02T10:13:25.572Z,8.52
2022-11-02T10:16:01.153Z,9.18
2022-11-02T10:18:30.410Z,8.75
2022-11-02T10:21:06.427Z,6.93
2022-11-02T10:23:38.331Z,7.03
2022-11-02T10:26:05.409Z,7.93
2022-11-02T10:28:39.298Z,6.28
2022-11-02T10:31:27.576Z,7.22
2022-11-02T10:33:58.096Z,7.00
2022-11-02T10:36:31.541Z,8.07
2022-11-02T10:39:13.305Z,7.47
2022-11-02T10:41:49.020Z,6.68
2022-11-02T10:45:01.692Z,7.88
2022-11-02T10:47:32.246Z,7.35
2022-11-02T10:50:12.552Z,6.78
2022-11-02T10:52:43.349Z,6.97
2022-11-02T10:55:21.472Z,5.72
2022-11-02T10:57:49.373Z,6.30
2022-11-02T11:00:27.703Z,5.50
2022-11-02T11:03:14.947Z,5.05
2022-11-02T11:05:56.139Z,5.43
2022-11-02T11:08:32.261Z,5.50
2022-11-02T11:11:15.278Z,6.70
2022-11-02T11:16:37.611Z,5.30
2022-11-02T11:22:03.202Z,5.88
2022-11-02T11:24:32.656Z,5.35
2022-11-02T11:27:11.679Z,5.18
2022-11-02T11:29:41.196Z,4.25
2022-11-02T11:32:22.762Z,4.65
2022-11-02T11:35:03.475Z,4.15
2022-11-02T11:37:31.207Z,4.00
2022-11-02T11:40:16.574Z,4.20
2022-11-02T11:42:43.863Z,5.10
2022-11-02T11:45:27.958Z,4.65
2022-11-02T11:48:02.727Z,4.70
2022-11-02T11:50:30.390Z,3.67
2022-11-02T11:53:15.664Z,4.65
2022-11-02T11:55:51.477Z,4.32
2022-11-02T11:58:22.537Z,3.90
2022-11-02T12:01:09.302Z,4.30
2022-11-02T12:03:53.920Z,4.80
2022-11-02T12:06:20.864Z,4.93
2022-11-02T12:09:16.623Z,5.13
2022-11-02T12:12:11.130Z,4.88
2022-11-02T12:14:43.685Z,4.97
2022-11-02T12:17:34.720Z,4.82
2022-11-02T12:20:17.239Z,4.85
2022-11-02T12:23:22.462Z,5.15
2022-11-02T12:26:18.292Z,4.55
2022-11-02T12:29:24.192Z,5.10
2022-11-02T12:32:19.902Z,3.60
2022-11-02T12:35:27.800Z,2.78
2022-11-02T12:38:39.677Z,3.05
2022-11-02T12:41:13.089Z,3.17
2022-11-02T12:43:44.555Z,3.45
2022-11-02T12:46:17.609Z,3.58
2022-11-02T12:48:53.557Z,3.28
2022-11-02T12:51:43.708Z,2.60
2022-11-02T12:54:14.140Z,2.83
2022-11-02T12:56:53.931Z,4.45
2022-11-02T12:59:28.140Z,2.50
2022-11-02T13:04:35.459Z,2.88
2022-11-02T13:07:13.486Z,2.80
2022-11-02T13:10:02.926Z,3.00
2022-11-02T13:12:34.396Z,3.88
2022-11-02T13:15:02.282Z,2.75
2022-11-02T13:17:44.421Z,3.80
2022-11-02T13:20:16.336Z,3.28
2022-11-02T13:22:47.846Z,3.90
2022-11-02T13:25:20.427Z,3.60
2022-11-02T13:28:05.404Z,3.63
2022-11-02T13:30:33.974Z,3.67
2022-11-02T13:33:17.778Z,3.70
2022-11-02T13:35:46.300Z,3.72
2022-11-02T13:38:13.160Z,3.53
2022-11-02T13:40:45.983Z,3.72
2022-11-02T13:43:24.894Z,3.28
2022-11-02T13:46:11.921Z,3.58
2022-11-02T13:48:51.129Z,3.85
2022-11-02T13:51:28.733Z,4.78
2022-11-02T13:54:03.429Z,3.72
2022-11-02T13:56:30.542Z,5.00
2022-11-02T13:59:04.113Z,3.97
2022-11-02T14:01:33.744Z,3.95
2022-11-02T14:04:20.188Z,3.78
2022-11-02T14:06:49.126Z,4.10
2022-11-02T14:09:35.498Z,4.85
2022-11-02T14:12:13.192Z,3.60
2022-11-02T14:14:40.099Z,3.55
2022-11-02T14:17:12.447Z,4.75
2022-11-02T14:19:52.517Z,3.55
2022-11-02T14:22:19.940Z,4.20
2022-11-02T14:24:48.348Z,4.55
2022-11-02T14:27:19.294Z,3.97
2022-11-02T14:29:46.234Z,4.63
2022-11-02T14:32:20.049Z,3.88
2022-11-02T14:35:14.563Z,4.43
2022-11-02T14:37:53.191Z,4.53
2022-11-02T14:40:44.623Z,5.03
2022-11-02T14:43:43.167Z,4.55
2022-11-02T14:46:31.673Z,6.70
2022-11-02T14:49:01.973Z,7.03
2022-11-02T14:51:32.658Z,7.43
2022-11-02T14:54:06.809Z,7.88
2022-11-02T14:56:56.446Z,8.65
2022-11-02T14:59:29.473Z,7.18
2022-11-02T15:02:09.823Z,8.00
2022-11-02T15:04:36.968Z,9.05
2022-11-02T15:07:06.446Z,9.73
2022-11-02T15:09:54.212Z,7.63
2022-11-02T15:12:31.930Z,8.05
2022-11-02T15:15:02.891Z,7.45
2022-11-02T15:17:29.697Z,10.00
2022-11-02T15:19:56.626Z,8.60
2022-11-02T15:22:38.473Z,8.52
2022-11-02T15:25:26.516Z,7.82
2022-11-02T15:27:57.527Z,8.52
2022-11-02T15:30:28.385Z,9.05
2022-11-02T15:33:05.955Z,7.32
2022-11-02T15:35:37.163Z,8.25
2022-11-02T15:38:27.901Z,6.82
2022-11-02T15:41:06.334Z,6.88
2022-11-02T15:43:43.242Z,6.57
2022-11-02T15:46:29.946Z,6.30
2022-11-02T15:49:21.219Z,7.57
2022-11-02T15:52:02.047Z,6.10
2022-11-02T15:54:45.759Z,6.97
2022-11-02T15:57:18.876Z,7.50
2022-11-02T16:00:09.895Z,6.25
2022-11-02T16:02:54.884Z,6.50
2022-11-02T16:05:28.035Z,6.07
2022-11-02T16:08:10.520Z,8.55
2022-11-02T16:10:43.522Z,5.72
2022-11-02T16:13:10.344Z,5.53
2022-11-02T16:15:38.036Z,5.95
2022-11-02T16:18:05.185Z,6.28
2022-11-02T16:20:39.948Z,5.60
2022-11-02T16:23:13.073Z,5.90
2022-11-02T16:25:47.623Z,5.50
2022-11-02T16:28:25.042Z,6.22
2022-11-02T16:31:13.540Z,6.00
2022-11-02T16:33:42.581Z,6.55
2022-11-02T16:36:12.134Z,8.00
2022-11-02T16:38:39.615Z,6.43
2022-11-02T16:41:09.461Z,7.72
2022-11-02T16:43:45.596Z,8.27
2022-11-02T16:46:18.860Z,7.82
2022-11-02T16:49:07.154Z,8.43
2022-11-02T16:51:34.186Z,8.35
2022-11-02T16:54:18.407Z,8.82
2022-11-02T16:56:50.066Z,8.85
2022-11-02T16:59:17.677Z,7.55
2022-11-02T17:01:44.968Z,9.38
2022-11-02T17:04:20.337Z,8.38
2022-11-02T17:06:49.288Z,8.60
2022-11-02T17:09:25.236Z,9.48
2022-11-02T17:11:53.849Z,9.88
2022-11-02T17:14:22.602Z,9.02
2022-11-02T17:17:06.073Z,9.82
2022-11-02T17:19:41.925Z,9.60
2022-11-02T17:22:21.364Z,9.77
2022-11-02T17:24:48.662Z,9.30
2022-11-02T17:27:26.290Z,10.63
2022-11-02T17:29:57.168Z,9.63
2022-11-02T17:32:24.756Z,10.57
2022-11-02T17:34:53.442Z,9.85
2022-11-02T17:37:28.407Z,10.38
2022-11-02T17:42:41.373Z,9.43
2022-11-02T17:45:28.772Z,9.82
2022-11-02T17:47:57.474Z,11.00
2022-11-02T17:50:26.030Z,10.77
2022-11-02T17:52:53.821Z,10.18
2022-11-02T17:55:27.343Z,10.23
2022-11-02T17:57:55.352Z,9.05
2022-11-02T18:00:23.363Z,7.80
2022-11-02T18:02:55.072Z,9.15
2022-11-02T18:05:29.169Z,8.77
2022-11-02T18:07:58.264Z,8.37
2022-11-02T18:10:29.224Z,8.35
2022-11-02T18:12:56.287Z,8.45
2022-11-02T18:15:26.055Z,8.98
2022-11-02T18:17:53.634Z,8.52
2022-11-02T18:20:20.917Z,9.40
2022-11-02T18:22:47.834Z,8.27
2022-11-02T18:25:17.255Z,10.32
2022-11-02T18:27:45.569Z,9.20
2022-11-02T18:30:14.812Z,9.77
2022-11-02T18:32:43.322Z,8.70
2022-11-02T18:35:13.499Z,9.43
2022-11-02T18:37:40.906Z,10.02
2022-11-02T18:40:10.175Z,9.15
2022-11-02T18:42:41.436Z,9.43
2022-11-02T18:45:10.351Z,9.32
2022-11-02T18:47:38.208Z,10.30
2022-11-02T18:50:07.262Z,10.82
2022-11-02T18:52:34.465Z,10.60
2022-11-02T18:55:05.379Z,11.18
2022-11-02T18:57:33.094Z,10.65
2022-11-02T19:00:02.550Z,9.73
2022-11-02T19:02:29.751Z,10.02
2022-11-02T19:04:56.745Z,11.25
2022-11-02T19:07:42.427Z,10.63
2022-11-02T19:10:10.103Z,12.32
2022-11-02T19:12:37.501Z,10.98
2022-11-02T19:15:05.480Z,11.38
2022-11-02T19:17:32.309Z,10.25
2022-11-02T19:19:59.220Z,11.50
2022-11-02T19:22:26.810Z,11.15
2022-11-02T19:24:53.941Z,11.27
2022-11-02T19:27:23.186Z,11.30
2022-11-02T19:29:50.433Z,11.60
2022-11-02T19:32:18.584Z,13.38
2022-11-02T19:34:45.568Z,11.68
2022-11-02T19:37:13.128Z,12.50
2022-11-02T19:39:40.100Z,12.43
2022-11-02T19:42:07.632Z,12.55
2022-11-02T19:44:41.274Z,12.43
2022-11-02T19:47:10.230Z,12.38
2022-11-02T19:49:37.132Z,12.77
2022-11-02T19:52:04.373Z,12.07
2022-11-02T19:54:31.282Z,12.02
2022-11-02T19:56:58.169Z,11.50
2022-11-02T19:59:25.078Z,11.75
2022-11-02T20:01:52.464Z,13.55
2022-11-02T20:04:19.564Z,11.80
2022-11-02T20:06:46.486Z,11.63
2022-11-02T20:09:16.217Z,12.93
2022-11-02T20:11:45.294Z,13.20
2022-11-02T20:14:14.135Z,12.45
2022-11-02T20:16:41.270Z,14.55
2022-11-02T20:19:09.394Z,12.02
2022-11-02T20:21:41.644Z,12.80
2022-11-02T20:24:11.831Z,12.05
2022-11-02T20:26:41.187Z,11.90
2022-11-02T20:29:10.910Z,13.77
2022-11-02T20:31:40.999Z,12.93
2022-11-02T20:34:08.496Z,13.65
2022-11-02T20:36:35.989Z,13.10
2022-11-02T20:39:05.015Z,12.77
2022-11-02T20:41:32.110Z,14.38
2022-11-02T20:43:59.262Z,13.77
2022-11-02T20:46:47.388Z,13.05
2022-11-02T20:49:48.759Z,12.38
2022-11-02T20:52:03.734Z,13.50
2022-11-02T20:54:30.735Z,13.75
2022-11-02T20:56:57.823Z,13.55
2022-11-02T20:59:25.380Z,13.40
2022-11-02T21:01:52.278Z,13.27
2022-11-02T21:04:21.248Z,15.15
2022-11-02T21:06:49.767Z,14.18
2022-11-02T21:09:17.389Z,14.95
2022-11-02T21:12:02.959Z,15.77
2022-11-02T21:14:29.893Z,13.32
2022-11-02T21:16:56.782Z,14.95
2022-11-02T21:19:23.701Z,14.43
2022-11-02T21:21:55.035Z,13.95
2022-11-02T21:24:23.589Z,13.85
2022-11-02T21:26:50.414Z,13.05
2022-11-02T21:29:17.342Z,14.20
2022-11-02T21:31:44.211Z,13.70
2022-11-02T21:34:11.061Z,13.35
2022-11-02T21:36:37.905Z,13.85
2022-11-02T21:39:04.748Z,15.15
2022-11-02T21:41:36.740Z,15.15
2022-11-02T21:44:03.995Z,13.48
2022-11-02T21:46:30.913Z,13.80
2022-11-02T21:48:57.766Z,14.05
2022-11-02T21:51:24.864Z,14.80
2022-11-02T21:53:52.544Z,14.65
2022-11-02T21:56:22.713Z,15.43
2022-11-02T21:58:49.775Z,15.02
2022-11-02T22:01:36.124Z,14.48
2022-11-02T22:04:04.482Z,16.05
2022-11-02T22:06:32.069Z,15.63
2022-11-02T22:09:00.463Z,14.00
2022-11-02T22:11:28.313Z,14.95
2022-11-02T22:13:57.438Z,15.15
2022-11-02T22:16:29.343Z,14.23
2022-11-02T22:18:59.090Z,14.57
2022-11-02T22:21:28.823Z,13.30
2022-11-02T22:23:56.726Z,13.23
2022-11-02T22:26:26.569Z,14.70
2022-11-02T22:28:57.188Z,13.45
2022-11-02T22:31:27.296Z,13.18
2022-11-02T22:33:56.379Z,13.73
2022-11-02T22:36:26.517Z,14.10
2022-11-02T22:38:55.011Z,13.25
2022-11-02T22:41:24.773Z,14.70
2022-11-02T22:43:54.120Z,14.70
2022-11-02T22:46:22.294Z,16.90
2022-11-02T22:48:52.052Z,16.38
2022-11-02T22:51:21.141Z,15.88
2022-11-02T22:53:48.702Z,16.98
2022-11-02T22:56:17.421Z,15.77
2022-11-02T22:58:46.022Z,17.15
2022-11-02T23:01:16.505Z,15.98
2022-11-02T23:03:43.817Z,16.05
2022-11-02T23:06:11.863Z,15.23
2022-11-02T23:08:41.569Z,15.52
2022-11-02T23:11:22.203Z,15.73
2022-11-02T23:13:51.842Z,17.20
2022-11-02T23:16:23.177Z,15.05
2022-11-02T23:19:16.961Z,14.88
2022-11-02T23:22:11.399Z,12.10
2022-11-02T23:25:02.958Z,11.48
2022-11-02T23:27:31.392Z,11.30
2022-11-02T23:30:16.684Z,11.13
2022-11-02T23:32:43.563Z,12.25
2022-11-02T23:35:29.209Z,11.35
2022-11-02T23:40:31.027Z,9.63
2022-11-02T23:42:58.011Z,11.23
2022-11-02T23:45:25.055Z,10.95
2022-11-02T23:47:57.731Z,9.07
2022-11-02T23:50:45.027Z,9.80
2022-11-02T23:53:31.961Z,9.95
2022-11-02T23:56:18.117Z,9.75
2022-11-02T23:58:45.490Z,8.43
